< < Back
Terminal Aerodrome Forecast


Current Version              Previous Versions:   1  2  3  4  5  6  7  8  9  

Terminal Aerodrome Forecast

067
FTUS42 KGSP 230539
TAFCLT
TAF
KCLT 230539Z 2306/2406 23003KT P6SM SCT250
     FM231900 21006KT P6SM SCT060 SCT250
     FM232300 14003KT P6SM SCT060=



Latest METAR

329
SAUS70 KWBC 231300 RRG
MTRCLT
METAR KCLT 231252Z 29004KT 10SM FEW250 26/21 A3002 RMK AO2 SLP156
T02610206


USA.gov is the U.S. government's official web portal to all federal, state and local government web resources and services.